Time;durP1;ratioP1;P1;durP2;ratioP2;P2;SDS_P1;SDS_P2;PMS_P1;PMS_P2;Temp;Humidity;BMP_temperature;BMP_pressure;BME280_temperature;BME280_humidity;BME280_pressure;Samples;Min_cycle;Max_cycle;Signal;HPM_P1;HPM_P2
2024/04/18 00:00:07;;;;;;;;;;;;;;;;;;2189601;26;20363;-84
2024/04/18 00:01:07;;;;;;;;;;;;;;;;;;2188046;27;19933;-83
2024/04/18 00:02:08;;;;;;;;;;;;;;;;;;2191196;26;20034;-82
2024/04/18 00:03:09;;;;;;;;;;;;;;;;;;2190057;26;19934;-83
2024/04/18 00:04:12;;;;;;;;;;;;;;;;;;2187620;26;19997;-83
2024/04/18 00:05:15;;;;;;;;;;;;;;;;;;2185718;27;20274;-83
2024/04/18 00:06:16;;;;;;;;;;;;;;;;;;2186650;27;19926;-83
2024/04/18 00:07:17;;;;;;;;;;;;;;;;;;2186505;26;19927;-83
2024/04/18 00:08:20;;;;;;;;;;;;;;;;;;2183763;27;20713;-83
2024/04/18 00:09:21;;;;;;;;;;;;;;;;;;2185912;27;19959;-83
2024/04/18 00:10:22;;;;;;;;;;;;;;;;;;2187822;26;19926;-83
2024/04/18 00:11:23;;;;;;;;;;;;;;;;;;2192327;26;19927;-83
2024/04/18 00:12:29;;;;;;;;;;;;;;;;;;2185464;26;19926;-83
2024/04/18 00:13:29;;;;;;;;;;;;;;;;;;2184725;27;19934;-83
2024/04/18 00:14:30;;;;;;;;;;;;;;;;;;2185200;27;20338;-83
2024/04/18 00:15:34;;;;;;;;;;;;;;;;;;2188091;26;19950;-83
2024/04/18 00:16:34;;;;;;;;;;;;;;;;;;2190153;26;19979;-83
2024/04/18 00:17:35;;;;;;;;;;;;;;;;;;2186284;26;19927;-83
2024/04/18 00:18:36;;;;;;;;;;;;;;;;;;2186458;27;19987;-83
2024/04/18 00:19:40;;;;;;;;;;;;;;;;;;2184820;26;19937;-83
2024/04/18 00:20:40;;;;;;;;;;;;;;;;;;2187848;27;19926;-83
2024/04/18 00:21:41;;;;;;;;;;;;;;;;;;2188395;27;19927;-84
2024/04/18 00:22:42;;;;;;;;;;;;;;;;;;2185638;27;20005;-83
2024/04/18 00:23:45;;;;;;;;;;;;;;;;;;2186720;27;20434;-84
2024/04/18 00:24:46;;;;;;;;;;;;;;;;;;2188404;27;19954;-83
2024/04/18 00:25:47;;;;;;;;;;;;;;;;;;2186174;26;19927;-84
2024/04/18 00:26:48;;;;;;;;;;;;;;;;;;2186693;26;19933;-83
2024/04/18 00:27:54;;;;;;;;;;;;;;;;;;2186411;27;19930;-83
2024/04/18 00:28:55;;;;;;;;;;;;;;;;;;2186818;27;19927;-77
2024/04/18 00:29:55;;;;;;;;;;;;;;;;;;2188263;26;20544;-76
2024/04/18 00:30:59;;;;;;;;;;;;;;;;;;2185704;27;19947;-76
2024/04/18 00:32:00;;;;;;;;;;;;;;;;;;2189081;27;19933;-76
2024/04/18 00:33:00;;;;;;;;;;;;;;;;;;2187102;27;19934;-76
2024/04/18 00:34:04;;;;;;;;;;;;;;;;;;2187373;26;19927;-76
2024/04/18 00:35:06;;;;;;;;;;;;;;;;;;2187428;26;19970;-77
2024/04/18 00:36:09;;;;;;;;;;;;;;;;;;2186568;27;19926;-76
2024/04/18 00:37:12;;;;;;;;;;;;;;;;;;2186642;26;20005;-76
2024/04/18 00:38:13;;;;;;;;;;;;;;;;;;2186508;27;19933;-76
2024/04/18 00:39:14;;;;;;;;;;;;;;;;;;2189298;26;19965;-76
2024/04/18 00:40:15;;;;;;;;;;;;;;;;;;2185555;27;20051;-77
2024/04/18 00:41:19;;;;;;;;;;;;;;;;;;2185957;27;19926;-76
2024/04/18 00:42:19;;;;;;;;;;;;;;;;;;2188260;27;19926;-76
2024/04/18 00:43:23;;;;;;;;;;;;;;;;;;2187921;27;19931;-76
2024/04/18 00:44:23;;;;;;;;;;;;;;;;;;2188596;26;19934;-76
2024/04/18 00:45:27;;;;;;;;;;;;;;;;;;2189114;27;19941;-76
2024/04/18 00:46:28;;;;;;;;;;;;;;;;;;2186738;26;19927;-76
2024/04/18 00:47:28;;;;;;;;;;;;;;;;;;2186775;27;20377;-76
2024/04/18 00:48:29;;;;;;;;;;;;;;;;;;2187723;26;19927;-75
2024/04/18 00:49:33;;;;;;;;;;;;;;;;;;2184474;26;19927;-75
2024/04/18 00:50:34;;;;;;;;;;;;;;;;;;2185821;27;20009;-76
2024/04/18 00:51:34;;;;;;;;;;;;;;;;;;2184842;26;19934;-76
2024/04/18 00:52:35;;;;;;;;;;;;;;;;;;2184114;27;19927;-76
2024/04/18 00:53:39;;;;;;;;;;;;;;;;;;2185916;27;20623;-76
2024/04/18 00:54:39;;;;;;;;;;;;;;;;;;2185279;26;19927;-76
2024/04/18 00:55:40;;;;;;;;;;;;;;;;;;2187845;26;19939;-76
2024/04/18 00:56:41;;;;;;;;;;;;;;;;;;2186994;27;19927;-76
2024/04/18 00:57:44;;;;;;;;;;;;;;;;;;2188171;27;19997;-76
2024/04/18 00:58:48;;;;;;;;;;;;;;;;;;2183491;26;19941;-76
2024/04/18 00:59:49;;;;;;;;;;;;;;;;;;2185607;27;19927;-78
2024/04/18 01:00:50;;;;;;;;;;;;;;;;;;2185415;27;19943;-77
2024/04/18 01:01:53;;;;;;;;;;;;;;;;;;2183719;26;19926;-76
2024/04/18 01:02:54;;;;;;;;;;;;;;;;;;2185412;27;19938;-77
2024/04/18 01:03:55;;;;;;;;;;;;;;;;;;2186738;27;19927;-77
2024/04/18 01:04:56;;;;;;;;;;;;;;;;;;2184348;26;20375;-77
2024/04/18 01:05:59;;;;;;;;;;;;;;;;;;2186892;27;19934;-77
2024/04/18 01:07:00;;;;;;;;;;;;;;;;;;2184952;26;19986;-78
2024/04/18 01:08:01;;;;;;;;;;;;;;;;;;2188455;27;20447;-77
2024/04/18 01:09:03;;;;;;;;;;;;;;;;;;2187609;26;19934;-77
2024/04/18 01:10:06;;;;;;;;;;;;;;;;;;2187981;26;20358;-77
2024/04/18 01:11:07;;;;;;;;;;;;;;;;;;2184148;27;19939;-77
2024/04/18 01:12:08;;;;;;;;;;;;;;;;;;2185593;26;20270;-77
2024/04/18 01:13:11;;;;;;;;;;;;;;;;;;2186343;26;20623;-75
2024/04/18 01:14:15;;;;;;;;;;;;;;;;;;2186008;26;19934;-74
2024/04/18 01:15:16;;;;;;;;;;;;;;;;;;2188744;27;19927;-77
2024/04/18 01:16:16;;;;;;;;;;;;;;;;;;2181760;27;19927;-77
2024/04/18 01:17:20;;;;;;;;;;;;;;;;;;2187730;27;20020;-77
2024/04/18 01:18:21;;;;;;;;;;;;;;;;;;2186162;27;19953;-77
2024/04/18 01:19:21;;;;;;;;;;;;;;;;;;2187680;26;20023;-77
2024/04/18 01:20:23;;;;;;;;;;;;;;;;;;2184724;26;19927;-75
2024/04/18 01:21:26;;;;;;;;;;;;;;;;;;2185866;27;19942;-77
2024/04/18 01:22:27;;;;;;;;;;;;;;;;;;2184434;26;19927;-77
2024/04/18 01:23:28;;;;;;;;;;;;;;;;;;2188300;27;19926;-77
2024/04/18 01:24:32;;;;;;;;;;;;;;;;;;2187178;26;19934;-77
2024/04/18 01:25:32;;;;;;;;;;;;;;;;;;2187297;26;19997;-77
2024/04/18 01:26:36;;;;;;;;;;;;;;;;;;2184765;27;20078;-77
2024/04/18 01:27:37;;;;;;;;;;;;;;;;;;2185128;26;20022;-77
2024/04/18 01:28:40;;;;;;;;;;;;;;;;;;2187621;26;20485;-77
2024/04/18 01:29:41;;;;;;;;;;;;;;;;;;2188148;27;19957;-76
2024/04/18 01:30:42;;;;;;;;;;;;;;;;;;2185463;27;19927;-77
2024/04/18 01:31:42;;;;;;;;;;;;;;;;;;2186588;26;20346;-76
2024/04/18 01:32:46;;;;;;;;;;;;;;;;;;2185942;27;20401;-77
2024/04/18 01:33:47;;;;;;;;;;;;;;;;;;2185304;27;20275;-76
2024/04/18 01:34:47;;;;;;;;;;;;;;;;;;2185475;26;19938;-76
2024/04/18 01:35:48;;;;;;;;;;;;;;;;;;2185861;27;19926;-76
2024/04/18 01:36:52;;;;;;;;;;;;;;;;;;2184570;27;19948;-77
2024/04/18 01:37:52;;;;;;;;;;;;;;;;;;2184698;26;20283;-76
2024/04/18 01:38:53;;;;;;;;;;;;;;;;;;2183628;27;19935;-77
2024/04/18 01:39:54;;;;;;;;;;;;;;;;;;2185815;27;19930;-76
2024/04/18 01:40:58;;;;;;;;;;;;;;;;;;2184402;27;19927;-77
2024/04/18 01:42:01;;;;;;;;;;;;;;;;;;2185936;27;19982;-76
2024/04/18 01:43:02;;;;;;;;;;;;;;;;;;2186977;26;19933;-77
2024/04/18 01:44:03;;;;;;;;;;;;;;;;;;2185567;27;19926;-76
2024/04/18 01:45:07;;;;;;;;;;;;;;;;;;2186233;27;19927;-77
2024/04/18 01:46:08;;;;;;;;;;;;;;;;;;2187526;26;19926;-77
2024/04/18 01:47:08;;;;;;;;;;;;;;;;;;2187942;27;20029;-77
2024/04/18 01:48:12;;;;;;;;;;;;;;;;;;2184467;26;19927;-76
2024/04/18 01:49:13;;;;;;;;;;;;;;;;;;2184339;27;19942;-77
2024/04/18 01:50:14;;;;;;;;;;;;;;;;;;2185635;26;20213;-77
2024/04/18 01:51:14;;;;;;;;;;;;;;;;;;2187334;27;19927;-77
2024/04/18 01:52:18;;;;;;;;;;;;;;;;;;2187962;26;20038;-76
2024/04/18 01:53:19;;;;;;;;;;;;;;;;;;2183651;27;20340;-76
2024/04/18 01:54:19;;;;;;;;;;;;;;;;;;2186449;27;19927;-77
2024/04/18 01:55:20;;;;;;;;;;;;;;;;;;2185858;27;19974;-77
2024/04/18 01:56:24;;;;;;;;;;;;;;;;;;2186241;27;20666;-77
2024/04/18 01:57:27;;;;;;;;;;;;;;;;;;2187118;26;19934;-77
2024/04/18 01:58:28;;;;;;;;;;;;;;;;;;2185933;26;19954;-77
2024/04/18 01:59:29;;;;;;;;;;;;;;;;;;2182196;27;20032;-77
2024/04/18 02:00:32;;;;;;;;;;;;;;;;;;2185441;26;20022;-77
2024/04/18 02:01:33;;;;;;;;;;;;;;;;;;2186391;26;20572;-76
2024/04/18 02:02:34;;;;;;;;;;;;;;;;;;2190471;26;20063;-76
2024/04/18 02:03:34;;;;;;;;;;;;;;;;;;2186260;26;19958;-76
2024/04/18 02:04:38;;;;;;;;;;;;;;;;;;2185038;26;19959;-77
2024/04/18 02:05:39;;;;;;;;;;;;;;;;;;2184335;27;19993;-77
2024/04/18 02:06:40;;;;;;;;;;;;;;;;;;2186095;27;20645;-76
2024/04/18 02:07:40;;;;;;;;;;;;;;;;;;2187511;26;20027;-76
2024/04/18 02:08:44;;;;;;;;;;;;;;;;;;2185989;26;19997;-77
2024/04/18 02:09:45;;;;;;;;;;;;;;;;;;2186473;27;19927;-76
2024/04/18 02:10:45;;;;;;;;;;;;;;;;;;2185423;26;19947;-77
2024/04/18 02:11:49;;;;;;;;;;;;;;;;;;2186954;27;19933;-76
2024/04/18 02:12:56;;;;;;;;;;;;;;;;;;2186969;27;19935;-76
2024/04/18 02:13:57;;;;;;;;;;;;;;;;;;2188206;27;20651;-76
2024/04/18 02:14:57;;;;;;;;;;;;;;;;;;2189001;26;19926;-77
2024/04/18 02:16:01;;;;;;;;;;;;;;;;;;2187152;27;20000;-76
2024/04/18 02:17:02;;;;;;;;;;;;;;;;;;2186898;26;20168;-76
2024/04/18 02:18:03;;;;;;;;;;;;;;;;;;2185154;26;19951;-76
2024/04/18 02:19:04;;;;;;;;;;;;;;;;;;2187839;27;20271;-76
2024/04/18 02:20:07;;;;;;;;;;;;;;;;;;2187312;27;19957;-75
2024/04/18 02:21:08;;;;;;;;;;;;;;;;;;2186587;27;19933;-77
2024/04/18 02:22:09;;;;;;;;;;;;;;;;;;2184787;26;19997;-76
2024/04/18 02:23:13;;;;;;;;;;;;;;;;;;2186554;26;19933;-76
2024/04/18 02:24:13;;;;;;;;;;;;;;;;;;2184857;27;19934;-77
2024/04/18 02:25:14;;;;;;;;;;;;;;;;;;2184390;26;20373;-77
2024/04/18 02:26:15;;;;;;;;;;;;;;;;;;2183982;27;20357;-77
2024/04/18 02:27:18;;;;;;;;;;;;;;;;;;2185264;27;19969;-76
2024/04/18 02:28:22;;;;;;;;;;;;;;;;;;2184107;26;19972;-77
2024/04/18 02:29:22;;;;;;;;;;;;;;;;;;2183497;27;19926;-76
2024/04/18 02:30:23;;;;;;;;;;;;;;;;;;2185768;26;20232;-77
2024/04/18 02:31:27;;;;;;;;;;;;;;;;;;2189075;27;20350;-77
2024/04/18 02:32:28;;;;;;;;;;;;;;;;;;2185056;26;20058;-76
2024/04/18 02:33:29;;;;;;;;;;;;;;;;;;2187346;27;19982;-76
2024/04/18 02:34:29;;;;;;;;;;;;;;;;;;2184235;26;19926;-77
2024/04/18 02:35:33;;;;;;;;;;;;;;;;;;2189227;27;19933;-77
2024/04/18 02:36:34;;;;;;;;;;;;;;;;;;2184304;27;19935;-77
2024/04/18 02:37:34;;;;;;;;;;;;;;;;;;2186147;26;19935;-77
2024/04/18 02:38:35;;;;;;;;;;;;;;;;;;2187491;26;19933;-76
2024/04/18 02:39:39;;;;;;;;;;;;;;;;;;2186324;26;20002;-76
2024/04/18 02:40:40;;;;;;;;;;;;;;;;;;2184444;27;20023;-76
2024/04/18 02:41:41;;;;;;;;;;;;;;;;;;2186206;26;19926;-77
2024/04/18 02:42:42;;;;;;;;;;;;;;;;;;2185576;27;20617;-76
2024/04/18 02:43:48;;;;;;;;;;;;;;;;;;2187918;26;19926;-76
2024/04/18 02:44:49;;;;;;;;;;;;;;;;;;2187845;27;19926;-76
2024/04/18 02:45:49;;;;;;;;;;;;;;;;;;2186433;26;19942;-77
2024/04/18 02:46:51;;;;;;;;;;;;;;;;;;2185461;26;20355;-77
2024/04/18 02:47:54;;;;;;;;;;;;;;;;;;2185162;26;21659;-76
2024/04/18 02:48:56;;;;;;;;;;;;;;;;;;2187092;27;20371;-78
2024/04/18 02:49:56;;;;;;;;;;;;;;;;;;2189475;26;19927;-77
2024/04/18 02:50:57;;;;;;;;;;;;;;;;;;2188512;26;20005;-76
2024/04/18 02:52:01;;;;;;;;;;;;;;;;;;2186991;27;20019;-76
2024/04/18 02:53:01;;;;;;;;;;;;;;;;;;2184445;27;19927;-76
2024/04/18 02:54:02;;;;;;;;;;;;;;;;;;2182503;27;19996;-76
2024/04/18 02:55:03;;;;;;;;;;;;;;;;;;2189743;26;19963;-77
2024/04/18 02:56:07;;;;;;;;;;;;;;;;;;2189068;27;19926;-76
2024/04/18 02:57:08;;;;;;;;;;;;;;;;;;2187692;27;20383;-77
2024/04/18 02:58:09;;;;;;;;;;;;;;;;;;2185151;26;19934;-76
2024/04/18 02:59:12;;;;;;;;;;;;;;;;;;2183754;26;19935;-76
2024/04/18 03:00:15;;;;;;;;;;;;;;;;;;2187496;27;19926;-77
2024/04/18 03:01:16;;;;;;;;;;;;;;;;;;2187147;26;19931;-76
2024/04/18 03:02:17;;;;;;;;;;;;;;;;;;2187595;26;19934;-75
2024/04/18 03:03:18;;;;;;;;;;;;;;;;;;2186699;26;20334;-76
2024/04/18 03:04:21;;;;;;;;;;;;;;;;;;2187859;26;19938;-77
2024/04/18 03:05:24;;;;;;;;;;;;;;;;;;2186297;27;19934;-77
2024/04/18 03:06:25;;;;;;;;;;;;;;;;;;2184863;27;20343;-76
2024/04/18 03:07:26;;;;;;;;;;;;;;;;;;2186264;26;19927;-77
2024/04/18 03:08:29;;;;;;;;;;;;;;;;;;2189122;26;19937;-76
2024/04/18 03:09:30;;;;;;;;;;;;;;;;;;2187557;27;20001;-76
2024/04/18 03:10:31;;;;;;;;;;;;;;;;;;2185551;27;20005;-76
2024/04/18 03:11:34;;;;;;;;;;;;;;;;;;2187119;26;19996;-76
2024/04/18 03:12:35;;;;;;;;;;;;;;;;;;2186801;27;20320;-76
2024/04/18 03:13:36;;;;;;;;;;;;;;;;;;2187414;26;19934;-76
2024/04/18 03:14:40;;;;;;;;;;;;;;;;;;2187061;27;20046;-76
2024/04/18 03:15:46;;;;;;;;;;;;;;;;;;2186106;26;19946;-77
2024/04/18 03:16:48;;;;;;;;;;;;;;;;;;2186228;27;19927;-79
2024/04/18 03:17:51;;;;;;;;;;;;;;;;;;2187587;27;20271;-78
2024/04/18 03:18:51;;;;;;;;;;;;;;;;;;2189500;27;20470;-77
2024/04/18 03:19:55;;;;;;;;;;;;;;;;;;2189129;26;20096;-77
2024/04/18 03:20:55;;;;;;;;;;;;;;;;;;2186410;27;19936;-77
2024/04/18 03:21:56;;;;;;;;;;;;;;;;;;2189143;26;20430;-77
2024/04/18 03:22:57;;;;;;;;;;;;;;;;;;2189204;26;20861;-77
2024/04/18 03:24:00;;;;;;;;;;;;;;;;;;2189387;27;19927;-76
2024/04/18 03:25:01;;;;;;;;;;;;;;;;;;2187798;26;20254;-76
2024/04/18 03:26:02;;;;;;;;;;;;;;;;;;2189124;26;19935;-76
2024/04/18 03:27:06;;;;;;;;;;;;;;;;;;2188549;27;19933;-77
2024/04/18 03:28:07;;;;;;;;;;;;;;;;;;2185448;26;20334;-76
2024/04/18 03:29:07;;;;;;;;;;;;;;;;;;2185878;27;19997;-76
2024/04/18 03:30:11;;;;;;;;;;;;;;;;;;2187541;27;19946;-77
2024/04/18 03:31:14;;;;;;;;;;;;;;;;;;2189547;26;20904;-76
2024/04/18 03:32:15;;;;;;;;;;;;;;;;;;2187884;27;20075;-76
2024/04/18 03:33:16;;;;;;;;;;;;;;;;;;2189653;26;19934;-76
2024/04/18 03:34:18;;;;;;;;;;;;;;;;;;2187055;26;19927;-77
2024/04/18 03:35:21;;;;;;;;;;;;;;;;;;2184596;27;19971;-78
2024/04/18 03:36:22;;;;;;;;;;;;;;;;;;2188064;27;20335;-77
2024/04/18 03:37:25;;;;;;;;;;;;;;;;;;2185675;27;20068;-76
2024/04/18 03:38:26;;;;;;;;;;;;;;;;;;2187673;27;19934;-77
2024/04/18 03:39:27;;;;;;;;;;;;;;;;;;2187455;27;19933;-79
2024/04/18 03:40:31;;;;;;;;;;;;;;;;;;2185643;27;20575;-78
2024/04/18 03:41:32;;;;;;;;;;;;;;;;;;2189239;27;20391;-78
2024/04/18 03:42:33;;;;;;;;;;;;;;;;;;2191294;26;20019;-78
2024/04/18 03:43:40;;;;;;;;;;;;;;;;;;2189793;26;22063;-79
2024/04/18 03:44:41;;;;;;;;;;;;;;;;;;2188361;27;19994;-78
2024/04/18 03:45:47;;;;;;;;;;;;;;;;;;2185167;26;19963;-76
2024/04/18 03:46:48;;;;;;;;;;;;;;;;;;2188383;26;19934;-76
2024/04/18 03:47:51;;;;;;;;;;;;;;;;;;2186271;26;19926;-76
2024/04/18 03:48:54;;;;;;;;;;;;;;;;;;2186349;27;19966;-76
2024/04/18 03:49:55;;;;;;;;;;;;;;;;;;2186934;26;20614;-76
2024/04/18 03:50:55;;;;;;;;;;;;;;;;;;2188531;26;20004;-76
2024/04/18 03:51:59;;;;;;;;;;;;;;;;;;2187280;26;20386;-76
2024/04/18 03:53:00;;;;;;;;;;;;;;;;;;2187381;27;19991;-76
2024/04/18 03:54:01;;;;;;;;;;;;;;;;;;2185095;27;20662;-76
2024/04/18 03:55:01;;;;;;;;;;;;;;;;;;2183085;27;20384;-77
2024/04/18 03:56:05;;;;;;;;;;;;;;;;;;2183892;27;19933;-76
2024/04/18 03:57:06;;;;;;;;;;;;;;;;;;2186913;26;20030;-76
2024/04/18 03:58:07;;;;;;;;;;;;;;;;;;2186391;26;20302;-77
2024/04/18 03:59:08;;;;;;;;;;;;;;;;;;2186197;27;20001;-76
2024/04/18 04:00:11;;;;;;;;;;;;;;;;;;2188365;26;19933;-76
2024/04/18 04:01:15;;;;;;;;;;;;;;;;;;2187214;27;19927;-77
2024/04/18 04:02:16;;;;;;;;;;;;;;;;;;2184712;27;19935;-76
2024/04/18 04:03:16;;;;;;;;;;;;;;;;;;2187146;26;19927;-76
2024/04/18 04:04:20;;;;;;;;;;;;;;;;;;2188691;26;20369;-75
2024/04/18 04:05:21;;;;;;;;;;;;;;;;;;2187785;27;19985;-76
2024/04/18 04:06:21;;;;;;;;;;;;;;;;;;2185867;26;19991;-76
2024/04/18 04:07:22;;;;;;;;;;;;;;;;;;2187314;27;20661;-76
2024/04/18 04:08:26;;;;;;;;;;;;;;;;;;2189161;26;19926;-77
2024/04/18 04:09:26;;;;;;;;;;;;;;;;;;2187794;26;19936;-76
2024/04/18 04:10:27;;;;;;;;;;;;;;;;;;2189084;26;20125;-77
2024/04/18 04:11:31;;;;;;;;;;;;;;;;;;2186596;26;19931;-76
2024/04/18 04:12:32;;;;;;;;;;;;;;;;;;2190554;26;19926;-77
2024/04/18 04:13:32;;;;;;;;;;;;;;;;;;2187045;26;20004;-77
2024/04/18 04:14:33;;;;;;;;;;;;;;;;;;2185663;27;19996;-76
2024/04/18 04:15:35;;;;;;;;;;;;;;;;;;2185302;26;20896;-76
2024/04/18 04:16:41;;;;;;;;;;;;;;;;;;2183383;26;19926;-76
2024/04/18 04:17:44;;;;;;;;;;;;;;;;;;2185506;27;19935;-76
2024/04/18 04:18:45;;;;;;;;;;;;;;;;;;2186944;26;19927;-77
2024/04/18 04:19:49;;;;;;;;;;;;;;;;;;2185461;26;20358;-76
2024/04/18 04:20:49;;;;;;;;;;;;;;;;;;2183540;26;19935;-76
2024/04/18 04:21:50;;;;;;;;;;;;;;;;;;2187983;26;19927;-76
2024/04/18 04:22:51;;;;;;;;;;;;;;;;;;2187191;26;19934;-76
2024/04/18 04:23:54;;;;;;;;;;;;;;;;;;2184087;26;19992;-77
2024/04/18 04:24:55;;;;;;;;;;;;;;;;;;2183986;27;19927;-77
2024/04/18 04:25:56;;;;;;;;;;;;;;;;;;2199489;26;20049;-76
2024/04/18 04:26:57;;;;;;;;;;;;;;;;;;2200999;26;19933;-75
2024/04/18 04:28:00;;;;;;;;;;;;;;;;;;2199468;26;20454;-75
2024/04/18 04:29:01;;;;;;;;;;;;;;;;;;2184880;27;19927;-75
2024/04/18 04:30:02;;;;;;;;;;;;;;;;;;2186271;27;20627;-75
2024/04/18 04:31:03;;;;;;;;;;;;;;;;;;2185187;26;19934;-75
2024/04/18 04:32:19;;;;;;;;;;;;;;;;;;2188222;26;19992;-75
2024/04/18 04:33:20;;;;;;;;;;;;;;;;;;2188192;27;19938;-76
2024/04/18 04:34:21;;;;;;;;;;;;;;;;;;2184692;26;19926;-75
2024/04/18 04:35:24;;;;;;;;;;;;;;;;;;2187194;26;19934;-75
2024/04/18 04:36:25;;;;;;;;;;;;;;;;;;2187055;26;19960;-75
2024/04/18 04:37:25;;;;;;;;;;;;;;;;;;2186060;26;20628;-75
2024/04/18 04:38:26;;;;;;;;;;;;;;;;;;2187508;26;20626;-75
2024/04/18 04:39:30;;;;;;;;;;;;;;;;;;2189224;26;19938;-75
2024/04/18 04:40:31;;;;;;;;;;;;;;;;;;2192747;26;19926;-75
2024/04/18 04:41:32;;;;;;;;;;;;;;;;;;2203002;26;19933;-77
2024/04/18 04:42:35;;;;;;;;;;;;;;;;;;2200632;26;20381;-78
2024/04/18 04:43:38;;;;;;;;;;;;;;;;;;2200863;26;19955;-75
2024/04/18 04:44:39;;;;;;;;;;;;;;;;;;2201290;26;20409;-75
2024/04/18 04:45:40;;;;;;;;;;;;;;;;;;2200099;26;19926;-75
2024/04/18 04:46:43;;;;;;;;;;;;;;;;;;2197626;26;19927;-75
2024/04/18 04:47:47;;;;;;;;;;;;;;;;;;2203439;26;20308;-75
2024/04/18 04:48:48;;;;;;;;;;;;;;;;;;2199491;26;19926;-75
2024/04/18 04:49:48;;;;;;;;;;;;;;;;;;2201439;26;19926;-75
2024/04/18 04:50:59;;;;;;;;;;;;;;;;;;2201705;26;19941;-75
2024/04/18 04:52:00;;;;;;;;;;;;;;;;;;2202341;26;19926;-76
2024/04/18 04:53:01;;;;;;;;;;;;;;;;;;2198372;26;19934;-75
2024/04/18 04:54:05;;;;;;;;;;;;;;;;;;2201324;26;20283;-75
2024/04/18 04:55:06;;;;;;;;;;;;;;;;;;2201871;26;19934;-75
2024/04/18 04:56:07;;;;;;;;;;;;;;;;;;2200397;26;19937;-76
2024/04/18 04:57:08;;;;;;;;;;;;;;;;;;2201817;26;19938;-76
2024/04/18 04:58:12;;;;;;;;;;;;;;;;;;2199820;26;19999;-75
2024/04/18 04:59:13;;;;;;;;;;;;;;;;;;2198964;26;19959;-75
2024/04/18 05:00:14;;;;;;;;;;;;;;;;;;2200768;26;19945;-75
2024/04/18 05:01:18;;;;;;;;;;;;;;;;;;2198945;26;19966;-75
2024/04/18 05:02:18;;;;;;;;;;;;;;;;;;2199177;26;19946;-75
2024/04/18 05:03:22;;;;;;;;;;;;;;;;;;2199650;26;19926;-75
2024/04/18 05:04:26;;;;;;;;;;;;;;;;;;2196359;26;20000;-76
2024/04/18 05:05:26;;;;;;;;;;;;;;;;;;2185664;26;19927;-75
2024/04/18 05:06:27;;;;;;;;;;;;;;;;;;2187471;26;20530;-76
2024/04/18 05:07:30;;;;;;;;;;;;;;;;;;2186600;26;20708;-75
2024/04/18 05:08:31;;;;;;;;;;;;;;;;;;2184268;26;19934;-76
2024/04/18 05:09:32;;;;;;;;;;;;;;;;;;2186572;27;19926;-76
2024/04/18 05:10:33;;;;;;;;;;;;;;;;;;2186443;26;20698;-75
2024/04/18 05:11:36;;;;;;;;;;;;;;;;;;2186281;27;19927;-75
2024/04/18 05:12:37;;;;;;;;;;;;;;;;;;2183998;26;19958;-75
2024/04/18 05:13:39;;;;;;;;;;;;;;;;;;2185312;27;19970;-76
2024/04/18 05:14:42;;;;;;;;;;;;;;;;;;2186723;27;20344;-77
2024/04/18 05:15:43;;;;;;;;;;;;;;;;;;2187868;27;19927;-75
2024/04/18 05:16:44;;;;;;;;;;;;;;;;;;2186150;26;19962;-75
2024/04/18 05:17:45;;;;;;;;;;;;;;;;;;2186071;27;19927;-76
2024/04/18 05:18:51;;;;;;;;;;;;;;;;;;2185143;26;19935;-75
2024/04/18 05:19:52;;;;;;;;;;;;;;;;;;2185266;27;20378;-76
2024/04/18 05:20:53;;;;;;;;;;;;;;;;;;2190124;26;19926;-76
2024/04/18 05:21:53;;;;;;;;;;;;;;;;;;2186798;26;20656;-75
2024/04/18 05:22:58;;;;;;;;;;;;;;;;;;2185953;26;19928;-75
2024/04/18 05:23:59;;;;;;;;;;;;;;;;;;2184892;27;20043;-75
2024/04/18 05:25:00;;;;;;;;;;;;;;;;;;2188961;26;19926;-76
2024/04/18 05:26:03;;;;;;;;;;;;;;;;;;2184602;27;20013;-75
2024/04/18 05:27:04;;;;;;;;;;;;;;;;;;2186050;27;19926;-76
2024/04/18 05:28:10;;;;;;;;;;;;;;;;;;2182454;26;20370;-76
2024/04/18 05:31:53;;;;;;;;;;;;;;;;;;2186793;26;20536;-75
2024/04/18 05:32:54;;;;;;;;;;;;;;;;;;2188983;26;19943;-76
2024/04/18 05:34:00;;;;;;;;;;;;;;;;;;2184508;26;19927;-75
2024/04/18 05:35:00;;;;;;;;;;;;;;;;;;2185345;27;20235;-76
2024/04/18 05:36:01;;;;;;;;;;;;;;;;;;2185976;27;19935;-74
2024/04/18 05:37:05;;;;;;;;;;;;;;;;;;2186330;27;20276;-76
2024/04/18 05:38:06;;;;;;;;;;;;;;;;;;2187622;27;19927;-76
2024/04/18 05:39:06;;;;;;;;;;;;;;;;;;2185525;27;19926;-77
2024/04/18 05:40:11;;;;;;;;;;;;;;;;;;2185249;26;19927;-77
2024/04/18 05:41:11;;;;;;;;;;;;;;;;;;2186184;26;19935;-77
2024/04/18 05:42:15;;;;;;;;;;;;;;;;;;2190630;27;20325;-76
2024/04/18 05:43:16;;;;;;;;;;;;;;;;;;2190279;26;19933;-77
2024/04/18 05:44:19;;;;;;;;;;;;;;;;;;2198306;26;19926;-77
2024/04/18 05:45:20;;;;;;;;;;;;;;;;;;2201063;26;19934;-77
2024/04/18 05:46:23;;;;;;;;;;;;;;;;;;2202559;26;19925;-77
2024/04/18 05:47:24;;;;;;;;;;;;;;;;;;2201016;26;19927;-77
2024/04/18 05:48:25;;;;;;;;;;;;;;;;;;2201955;26;19926;-77
2024/04/18 05:49:31;;;;;;;;;;;;;;;;;;2194306;26;19938;-77
2024/04/18 05:50:32;;;;;;;;;;;;;;;;;;2187990;26;19959;-76
2024/04/18 05:51:35;;;;;;;;;;;;;;;;;;2183341;27;20392;-77
2024/04/18 05:52:36;;;;;;;;;;;;;;;;;;2185035;26;19927;-75
2024/04/18 05:53:37;;;;;;;;;;;;;;;;;;2184578;26;20485;-76
2024/04/18 05:54:40;;;;;;;;;;;;;;;;;;2185237;26;19933;-76
2024/04/18 05:55:41;;;;;;;;;;;;;;;;;;2188092;26;19934;-75
2024/04/18 05:56:43;;;;;;;;;;;;;;;;;;2188014;27;19938;-76
2024/04/18 05:57:46;;;;;;;78.05;3.75;;;;;;;;;;2188047;27;19927;-89
2024/04/18 05:58:47;;;;;;;5.53;2.10;;;;;;;;;;2182973;27;21084;-79
2024/04/18 05:59:51;;;;;;;;;;;;;;;;;;2184477;27;20025;-80
2024/04/18 06:00:52;;;;;;;9.10;1.80;;;;;;;;;;2186121;27;20382;-80
2024/04/18 06:01:55;;;;;;;;;;;;;;;;;;2186836;26;20462;-80
2024/04/18 06:02:56;;;;;;;4.68;1.70;;;;;;;;;;2184677;27;20398;-80
2024/04/18 06:04:00;;;;;;;;;;;;;;;;;;2185549;26;20009;-80
2024/04/18 06:05:04;;;;;;;5.07;1.80;;;;;;;;;;2200728;26;19933;-81
2024/04/18 06:06:08;;;;;;;6.85;1.98;;;;;;;;;;2203947;26;20005;-81
2024/04/18 06:07:09;;;;;;;5.82;2.20;;;;;;;;;;2200906;26;20479;-81
2024/04/18 06:08:10;;;;;;;11.27;2.00;;;;;;;;;;2201567;26;20013;-82
2024/04/18 06:09:14;;;;;;;3.65;1.70;;;;;;;;;;2198428;26;20001;-82
2024/04/18 06:10:15;;;;;;;5.35;1.60;;;;;;;;;;2200462;26;20374;-82
2024/04/18 06:11:16;;;;;;;3.05;1.60;;;;;;;;;;2199238;26;20086;-81
2024/04/18 06:12:20;;;;;;;;;;;;;;;;;;2202086;26;20504;-81
2024/04/18 06:13:24;;;;;;;4.30;1.63;;;;;;;;;;2195185;26;20282;-82
2024/04/18 06:14:28;;;;;;;4.05;1.80;;;;;;;;;;2201878;26;20009;-82
2024/04/18 06:15:29;;;;;;;7.68;1.92;;;;;;;;;;2199813;26;20736;-82
2024/04/18 06:16:32;;;;;;;;;;;;;;;;;;2200097;26;20002;-82
2024/04/18 06:17:36;;;;;;;5.85;1.98;;;;;;;;;;2200757;26;19986;-82
2024/04/18 06:18:39;;;;;;;6.53;2.00;;;;;;;;;;2197985;26;20107;-82
2024/04/18 06:19:41;;;;;;;4.28;1.85;;;;;;;;;;2199133;26;20345;-83
2024/04/18 06:20:50;;;;;;;7.47;1.70;;;;;;;;;;2201337;26;20005;-82
2024/04/18 06:21:51;;;;;;;7.28;1.65;;;;;;;;;;2200998;26;20106;-81
2024/04/18 06:22:54;;;;;;;;;;;;;;;;;;2197450;26;20012;-82
2024/04/18 06:23:55;;;;;;;3.25;1.58;;;;;;;;;;2198251;26;20002;-82
2024/04/18 06:24:59;;;;;;;;;;;;;;;;;;2201548;26;20099;-81
2024/04/18 06:26:00;;;;;;;5.97;2.03;;;;;;;;;;2197883;26;19934;-81
2024/04/18 06:27:01;;;;;;;;;;;;;;;;;;2199102;26;20016;-81
2024/04/18 06:28:05;;;;;;;3.33;1.55;;;;;;;;;;2200298;26;19990;-81
2024/04/18 06:29:06;;;;;;;4.55;1.70;;;;;;;;;;2198608;26;20002;-78
2024/04/18 06:30:10;;;;;;;;;;;;;;;;;;2200628;26;20010;-78
2024/04/18 06:31:11;;;;;;;6.82;2.35;;;;;;;;;;2199734;26;19926;-77
2024/04/18 06:32:15;;;;;;;16.95;2.70;;;;;;;;;;2200037;26;20020;-77
2024/04/18 06:33:16;;;;;;;9.50;1.80;;;;;;;;;;2195959;26;20142;-77
2024/04/18 06:34:19;;;;;;;;;;;;;;;;;;2199196;26;20764;-78
2024/04/18 06:35:20;;;;;;;6.32;1.75;;;;;;;;;;2198999;26;19940;-77
2024/04/18 06:36:24;;;;;;;5.05;1.70;;;;;;;;;;2197014;26;20008;-76
2024/04/18 06:37:28;;;;;;;4.13;2.17;;;;;;;;;;2201850;26;20008;-77
2024/04/18 06:38:29;;;;;;;3.95;1.85;;;;;;;;;;2196394;26;20497;-77
2024/04/18 06:39:33;;;;;;;;;;;;;;;;;;2200038;26;20732;-77
2024/04/18 06:40:34;;;;;;;4.18;2.08;;;;;;;;;;2198303;26;21009;-77
2024/04/18 06:41:38;;;;;;;5.60;1.73;;;;;;;;;;2198647;26;20462;-79
2024/04/18 06:42:39;;;;;;;10.80;2.20;;;;;;;;;;2200700;26;20002;-76
2024/04/18 06:43:43;;;;;;;8.00;1.80;;;;;;;;;;2197505;26;20001;-77
2024/04/18 06:44:44;;;;;;;6.50;2.10;;;;;;;;;;2198903;26;20009;-77
2024/04/18 06:45:48;;;;;;;;;;;;;;;;;;2200395;26;20464;-77
2024/04/18 06:46:49;;;;;;;3.85;1.98;;;;;;;;;;2195681;26;19926;-77
2024/04/18 06:47:52;;;;;;;;;;;;;;;;;;2203144;26;20020;-77
2024/04/18 06:48:54;;;;;;;5.22;1.70;;;;;;;;;;2198372;26;20735;-77
2024/04/18 06:49:57;;;;;;;5.15;1.73;;;;;;;;;;2197972;26;20002;-77
2024/04/18 06:50:58;;;;;;;3.60;2.05;;;;;;;;;;2195875;26;20429;-77
2024/04/18 06:52:05;;;;;;;;;;;;;;;;;;2199425;26;20001;-77
2024/04/18 06:53:07;;;;;;;4.68;1.80;;;;;;;;;;2198594;26;19951;-77
2024/04/18 06:54:12;;;;;;;8.25;2.00;;;;;;;;;;2198506;26;20747;-77
2024/04/18 06:55:13;;;;;;;3.05;1.77;;;;;;;;;;2197699;26;20009;-77
2024/04/18 06:56:17;;;;;;;5.13;1.92;;;;;;;;;;2198473;26;20020;-77
2024/04/18 06:57:18;;;;;;;4.45;1.88;;;;;;;;;;2201251;26;19998;-77
2024/04/18 06:58:22;;;;;;;;;;;;;;;;;;2196439;26;20416;-77